createdAt,value
2024-04-21T00:00:19.539Z,99
2024-04-21T00:01:23.550Z,99.1
2024-04-21T00:02:24.063Z,99.1
2024-04-21T00:03:26.230Z,99.1
2024-04-21T00:04:28.657Z,99.1
2024-04-21T00:05:30.928Z,99.2
2024-04-21T00:06:32.064Z,99.2
2024-04-21T00:07:34.657Z,99.2
2024-04-21T00:08:36.251Z,99.1
2024-04-21T00:09:38.779Z,99.2
2024-04-21T00:10:41.501Z,99.1
2024-04-21T00:11:42.314Z,99.1
2024-04-21T00:12:46.166Z,99.2
2024-04-21T00:13:46.663Z,99.2
2024-04-21T00:14:48.701Z,99.2
2024-04-21T00:15:50.904Z,99.2
2024-04-21T00:16:53.579Z,99.2
2024-04-21T00:17:54.985Z,99.2
2024-04-21T00:18:57.013Z,99.3
2024-04-21T00:19:58.685Z,99.4
2024-04-21T00:21:01.697Z,99.4
2024-04-21T00:22:04.019Z,99.5
2024-04-21T00:23:04.655Z,99.5
2024-04-21T00:24:07.294Z,99.6
2024-04-21T00:25:09.153Z,99.7
2024-04-21T00:26:11.599Z,99.7
2024-04-21T00:27:12.650Z,99.7
2024-04-21T00:28:15.234Z,99.9
2024-04-21T00:29:16.669Z,99.9
2024-04-21T00:30:19.017Z,99.9
2024-04-21T00:31:21.352Z,99.9
2024-04-21T00:32:22.664Z,99.9
2024-04-21T00:33:24.933Z,99.9
2024-04-21T00:34:27.481Z,99.9
2024-04-21T00:35:29.545Z,99.9
2024-04-21T00:36:31.860Z,99.9
2024-04-21T00:37:32.667Z,99.9
2024-04-21T00:38:35.075Z,99.9
2024-04-21T00:39:36.678Z,99.9
2024-04-21T00:40:39.470Z,99.9
2024-04-21T00:41:40.672Z,99.9
2024-04-21T00:42:43.029Z,99.9
2024-04-21T00:43:44.866Z,99.9
2024-04-21T00:44:46.622Z,99.9
2024-04-21T00:45:49.157Z,99.9
2024-04-21T00:46:50.942Z,99.9
2024-04-21T00:47:53.040Z,99.9
2024-04-21T00:48:54.755Z,99.9
2024-04-21T00:49:57.967Z,99.9
2024-04-21T00:50:58.616Z,99.9
2024-04-21T00:52:00.964Z,99.9
2024-04-21T00:53:02.634Z,99.9
2024-04-21T00:54:04.601Z,99.9
2024-04-21T00:55:07.401Z,99.9
2024-04-21T00:56:08.645Z,99.9
2024-04-21T00:57:11.142Z,99.9
2024-04-21T00:58:13.251Z,99.9
2024-04-21T00:59:14.594Z,99.9
2024-04-21T01:00:17.567Z,99.9
2024-04-21T01:01:19.164Z,99.9
2024-04-21T01:02:20.886Z,99.9
2024-04-21T01:03:22.598Z,99.9
2024-04-21T01:04:24.958Z,99.9
2024-04-21T01:05:26.650Z,99.9
2024-04-21T01:06:28.849Z,99.9
2024-04-21T01:07:30.819Z,99.9
2024-04-21T01:08:32.586Z,99.9
2024-04-21T01:09:35.563Z,99.9
2024-04-21T01:10:36.664Z,99.9
2024-04-21T01:11:38.714Z,99.9
2024-04-21T01:12:40.594Z,99.9
2024-04-21T01:13:42.605Z,99.9
2024-04-21T01:14:45.099Z,99.9
2024-04-21T01:15:47.177Z,99.9
2024-04-21T01:16:48.635Z,99.9
2024-04-21T01:17:51.130Z,99.9
2024-04-21T01:18:53.021Z,99.9
2024-04-21T01:19:55.760Z,99.9
2024-04-21T01:20:56.586Z,99.9
2024-04-21T01:21:58.650Z,99.9
2024-04-21T01:23:01.246Z,99.9
2024-04-21T01:24:03.895Z,99.9
2024-04-21T01:25:05.725Z,99.9
2024-04-21T01:26:06.844Z,99.9
2024-04-21T01:27:09.536Z,99.9
2024-04-21T01:28:10.595Z,99.9
2024-04-21T01:29:12.595Z,99.9
2024-04-21T01:30:14.592Z,99.9
2024-04-21T01:31:17.668Z,99.9
2024-04-21T01:32:19.524Z,99.9
2024-04-21T01:33:20.657Z,99.9
2024-04-21T01:34:23.834Z,99.9
2024-04-21T01:35:25.327Z,99.9
2024-04-21T01:36:27.107Z,99.9
2024-04-21T01:37:28.566Z,99.9
2024-04-21T01:38:31.187Z,99.9
2024-04-21T01:39:32.930Z,99.9
2024-04-21T01:40:35.891Z,99.9
2024-04-21T01:41:37.606Z,99.9
2024-04-21T01:42:38.563Z,99.9
2024-04-21T01:43:41.105Z,99.9
2024-04-21T01:44:42.621Z,99.9
2024-04-21T01:45:44.965Z,99.9
2024-04-21T01:46:47.331Z,99.9
2024-04-21T01:47:49.642Z,99.9
2024-04-21T01:48:50.852Z,99.9
2024-04-21T01:49:52.538Z,99.9
2024-04-21T01:50:54.536Z,99.9
2024-04-21T01:51:56.711Z,99.9
2024-04-21T01:52:58.564Z,99.9
2024-04-21T01:54:00.814Z,99.9
2024-04-21T01:55:03.430Z,99.9
2024-04-21T01:56:05.455Z,99.9
2024-04-21T01:57:07.193Z,99.7
2024-04-21T01:58:09.865Z,99.7
2024-04-21T01:59:10.542Z,99.7
2024-04-21T02:00:13.381Z,99.8
2024-04-21T02:01:14.892Z,99.8
2024-04-21T02:02:17.573Z,99.9
2024-04-21T02:03:19.029Z,99.9
2024-04-21T02:04:20.781Z,99.9
2024-04-21T02:05:23.320Z,99.9
2024-04-21T02:06:24.698Z,99.9
2024-04-21T02:07:27.127Z,99.9
2024-04-21T02:08:28.527Z,99.9
2024-04-21T02:09:30.635Z,99.9
2024-04-21T02:10:32.546Z,99.9
2024-04-21T02:11:35.686Z,99.9
2024-04-21T02:12:36.529Z,99.9
2024-04-21T02:13:38.751Z,99.9
2024-04-21T02:14:40.663Z,99.9
2024-04-21T02:15:42.723Z,99.9
2024-04-21T02:16:44.579Z,99.9
2024-04-21T02:17:46.538Z,99.9
2024-04-21T02:18:48.556Z,99.9
2024-04-21T02:19:50.507Z,99.9
2024-04-21T02:20:52.537Z,99.9
2024-04-21T02:21:54.741Z,99.9
2024-04-21T02:22:56.546Z,99.9
2024-04-21T02:23:58.857Z,99.9
2024-04-21T02:25:00.937Z,99.9
2024-04-21T02:26:02.651Z,99.9
2024-04-21T02:27:04.514Z,99.9
2024-04-21T02:28:06.770Z,99.9
2024-04-21T02:29:08.503Z,99.9
2024-04-21T02:30:10.520Z,99.7
2024-04-21T02:31:12.660Z,99.5
2024-04-21T02:32:14.695Z,99.4
2024-04-21T02:33:16.775Z,99.3
2024-04-21T02:34:18.917Z,99.2
2024-04-21T02:35:20.504Z,99.3
2024-04-21T02:36:22.487Z,99.3
2024-04-21T02:37:24.706Z,98.8
2024-04-21T02:38:26.476Z,97.9
2024-04-21T02:39:28.512Z,97.5
2024-04-21T02:40:30.824Z,97.9
2024-04-21T02:41:32.494Z,98.2
2024-04-21T02:42:34.486Z,98.5
2024-04-21T02:43:36.498Z,98.9
2024-04-21T02:44:38.505Z,99.1
2024-04-21T02:45:40.556Z,99.3
2024-04-21T02:46:42.848Z,99.4
2024-04-21T02:47:44.576Z,99.6
2024-04-21T02:48:46.677Z,99.7
2024-04-21T02:49:48.491Z,99.9
2024-04-21T02:50:50.486Z,99.9
2024-04-21T02:51:52.813Z,99.9
2024-04-21T02:52:54.523Z,99.9
2024-04-21T02:53:56.500Z,99.9
2024-04-21T02:54:58.653Z,99.9
2024-04-21T02:56:00.717Z,99.9
2024-04-21T02:57:02.756Z,99.9
2024-04-21T02:58:04.835Z,99.9
2024-04-21T02:59:06.507Z,99.9
2024-04-21T03:00:08.457Z,99.9
2024-04-21T03:01:10.744Z,99.9
2024-04-21T03:02:12.741Z,99.9
2024-04-21T03:03:14.496Z,99.9
2024-04-21T03:04:16.963Z,99.9
2024-04-21T03:05:18.438Z,99.9
2024-04-21T03:06:20.447Z,99.9
2024-04-21T03:07:22.699Z,99.9
2024-04-21T03:08:24.468Z,99.9
2024-04-21T03:09:26.450Z,99.9
2024-04-21T03:10:28.594Z,99.9
2024-04-21T03:11:30.628Z,99.9
2024-04-21T03:12:32.464Z,99.9
2024-04-21T03:13:34.709Z,99.9
2024-04-21T03:14:36.775Z,99.9
2024-04-21T03:15:38.456Z,99.9
2024-04-21T03:16:40.429Z,99.9
2024-04-21T03:17:42.623Z,99.9
2024-04-21T03:18:44.424Z,99.9
2024-04-21T03:19:46.434Z,99.9
2024-04-21T03:20:48.424Z,99.9
2024-04-21T03:21:50.544Z,99.9
2024-04-21T03:22:52.443Z,99.9
2024-04-21T03:23:54.423Z,99.9
2024-04-21T03:24:56.717Z,99.9
2024-04-21T03:25:58.414Z,99.9
2024-04-21T03:27:00.830Z,99.9
2024-04-21T03:28:02.585Z,99.9
2024-04-21T03:29:04.406Z,99.9
2024-04-21T03:30:06.439Z,99.9
2024-04-21T03:31:08.719Z,99.9
2024-04-21T03:32:10.806Z,99.9
2024-04-21T03:33:12.887Z,99.9
2024-04-21T03:34:14.609Z,99.9
2024-04-21T03:35:16.423Z,99.9
2024-04-21T03:36:18.457Z,99.9
2024-04-21T03:37:20.760Z,99.9
2024-04-21T03:38:22.417Z,99.9
2024-04-21T03:39:24.424Z,99.9
2024-04-21T03:40:26.622Z,99.9
2024-04-21T03:41:28.428Z,99.9
2024-04-21T03:42:30.458Z,99.9
2024-04-21T03:43:32.689Z,99.9
2024-04-21T03:44:34.396Z,99.9
2024-04-21T03:45:36.438Z,99.9
2024-04-21T03:46:38.616Z,99.9
2024-04-21T03:47:40.731Z,99.9
2024-04-21T03:48:42.727Z,99.9
2024-04-21T03:49:44.426Z,99.9
2024-04-21T03:50:46.529Z,99.9
2024-04-21T03:51:48.415Z,99.9
2024-04-21T03:52:50.383Z,99.9
2024-04-21T03:53:52.401Z,99.9
2024-04-21T03:54:54.444Z,99.9
2024-04-21T03:55:56.386Z,99.9
2024-04-21T03:56:58.375Z,99.9
2024-04-21T03:58:00.647Z,99.9
2024-04-21T03:59:02.674Z,99.9
2024-04-21T04:00:04.423Z,99.9
2024-04-21T04:01:06.826Z,99.9
2024-04-21T04:02:08.376Z,99.9
2024-04-21T04:03:10.593Z,99.9
2024-04-21T04:04:12.727Z,99.9
2024-04-21T04:05:14.386Z,99.9
2024-04-21T04:06:16.385Z,99.9
2024-04-21T04:07:18.876Z,99.9
2024-04-21T04:08:20.395Z,99.9
2024-04-21T04:09:22.420Z,99.9
2024-04-21T04:10:24.692Z,99.9
2024-04-21T04:11:26.431Z,99.9
2024-04-21T04:12:28.448Z,99.9
2024-04-21T04:13:30.554Z,99.9
2024-04-21T04:14:32.394Z,99.9
2024-04-21T04:15:34.350Z,99.9
2024-04-21T04:16:36.378Z,99.9
2024-04-21T04:17:38.770Z,99.9
2024-04-21T04:18:40.374Z,99.9
2024-04-21T04:19:42.354Z,99.9
2024-04-21T04:20:44.341Z,99.9
2024-04-21T04:21:46.641Z,99.9
2024-04-21T04:22:48.714Z,99.9
2024-04-21T04:23:50.343Z,99.9
2024-04-21T04:24:52.524Z,99.9
2024-04-21T04:25:54.341Z,99.9
2024-04-21T04:26:56.363Z,99.9
2024-04-21T04:27:58.491Z,99.9
2024-04-21T04:29:00.398Z,99.9
2024-04-21T04:30:02.454Z,99.9
2024-04-21T04:31:04.542Z,99.9
2024-04-21T04:32:06.367Z,99.9
2024-04-21T04:33:08.644Z,99.9
2024-04-21T04:34:10.682Z,99.9
2024-04-21T04:35:12.336Z,99.9
2024-04-21T04:36:14.335Z,99.9
2024-04-21T04:37:16.564Z,99.9
2024-04-21T04:38:18.581Z,99.9
2024-04-21T04:39:20.313Z,99.9
2024-04-21T04:40:22.747Z,99.9
2024-04-21T04:41:24.346Z,99.9
2024-04-21T04:42:26.348Z,99.9
2024-04-21T04:43:28.596Z,99.9
2024-04-21T04:44:30.339Z,99.9
2024-04-21T04:45:32.335Z,99.9
2024-04-21T04:46:34.719Z,99.9
2024-04-21T04:47:36.617Z,99.9
2024-04-21T04:48:38.309Z,99.9
2024-04-21T04:49:40.333Z,99.9
2024-04-21T04:50:42.335Z,99.9
2024-04-21T04:51:44.364Z,99.9
2024-04-21T04:52:46.320Z,99.9
2024-04-21T04:53:48.305Z,99.9
2024-04-21T04:54:50.558Z,99.9
2024-04-21T04:55:52.344Z,99.9
2024-04-21T04:56:54.304Z,99.9
2024-04-21T04:57:56.413Z,99.9
2024-04-21T04:58:58.318Z,99.9
2024-04-21T05:00:00.597Z,99.9
2024-04-21T05:01:02.652Z,99.9
2024-04-21T05:02:04.306Z,99.9
2024-04-21T05:03:06.723Z,99.9
2024-04-21T05:04:08.523Z,99.9
2024-04-21T05:05:10.329Z,99.9
2024-04-21T05:06:12.332Z,99.9
2024-04-21T05:07:14.916Z,99.9
2024-04-21T05:08:16.295Z,99.9
2024-04-21T05:09:18.284Z,99.9
2024-04-21T05:10:20.789Z,99.9
2024-04-21T05:11:22.310Z,99.9
2024-04-21T05:12:24.281Z,99.9
2024-04-21T05:13:26.602Z,99.9
2024-04-21T05:14:28.303Z,99.9
2024-04-21T05:15:30.339Z,99.9
2024-04-21T05:16:32.273Z,99.9
2024-04-21T05:17:34.606Z,99.9
2024-04-21T05:18:36.578Z,99.9
2024-04-21T05:19:38.304Z,99.9
2024-04-21T05:20:40.275Z,99.9
2024-04-21T05:21:42.283Z,99.9
2024-04-21T05:22:44.284Z,99.9
2024-04-21T05:23:46.274Z,99.9
2024-04-21T05:24:48.617Z,99.9
2024-04-21T05:25:50.273Z,99.9
2024-04-21T05:26:52.266Z,99.9
2024-04-21T05:27:54.451Z,99.9
2024-04-21T05:28:56.520Z,99.9
2024-04-21T05:29:58.550Z,99.9
2024-04-21T05:31:00.654Z,99.9
2024-04-21T05:32:02.391Z,99.9
2024-04-21T05:33:04.479Z,99.9
2024-04-21T05:34:06.483Z,99.9
2024-04-21T05:35:08.276Z,99.9
2024-04-21T05:36:10.254Z,99.9
2024-04-21T05:37:12.321Z,99.9
2024-04-21T05:38:14.293Z,99.9
2024-04-21T05:39:16.270Z,99.9
2024-04-21T05:40:18.509Z,99.9
2024-04-21T05:41:20.253Z,99.9
2024-04-21T05:42:22.254Z,99.9
2024-04-21T05:43:24.954Z,99.9
2024-04-21T05:44:26.249Z,99.9
2024-04-21T05:45:28.267Z,99.9
2024-04-21T05:46:30.537Z,99.9
2024-04-21T05:47:32.619Z,99.9
2024-04-21T05:48:34.653Z,99.9
2024-04-21T05:49:36.372Z,99.9
2024-04-21T05:50:38.426Z,99.9
2024-04-21T05:51:40.241Z,99.9
2024-04-21T05:52:42.258Z,99.9
2024-04-21T05:53:44.270Z,99.9
2024-04-21T05:54:46.326Z,99.9
2024-04-21T05:55:48.234Z,99.9
2024-04-21T05:56:50.255Z,99.9
2024-04-21T05:57:52.496Z,99.9
2024-04-21T05:58:54.243Z,99.9
2024-04-21T05:59:56.230Z,99.9
2024-04-21T06:00:58.692Z,99.9
2024-04-21T06:02:00.303Z,99.9
2024-04-21T06:03:02.474Z,99.9
2024-04-21T06:04:04.569Z,99.9
2024-04-21T06:05:06.645Z,99.9
2024-04-21T06:06:08.312Z,99.9
2024-04-21T06:07:10.425Z,99.9
2024-04-21T06:08:12.210Z,99.9
2024-04-21T06:09:14.209Z,99.9
2024-04-21T06:10:16.559Z,99.9
2024-04-21T06:11:18.618Z,99.9
2024-04-21T06:12:20.256Z,99.8
2024-04-21T06:13:22.409Z,99.7
2024-04-21T06:14:24.228Z,99.7
2024-04-21T06:15:26.225Z,99.7
2024-04-21T06:16:28.565Z,99.7
2024-04-21T06:17:30.660Z,99.7
2024-04-21T06:18:32.481Z,99.7
2024-04-21T06:19:34.451Z,99.7
2024-04-21T06:20:36.461Z,99.7
2024-04-21T06:21:38.245Z,99.7
2024-04-21T06:22:40.572Z,99.6
2024-04-21T06:23:42.190Z,99.5
2024-04-21T06:24:44.186Z,99.4
2024-04-21T06:25:46.238Z,99.2
2024-04-21T06:26:50.634Z,98.9
2024-04-21T06:27:51.177Z,98.8
2024-04-21T06:28:52.934Z,98.8
2024-04-21T06:29:54.974Z,98.8
2024-04-21T06:30:56.973Z,98.7
2024-04-21T06:31:59.081Z,98.9
2024-04-21T06:33:01.178Z,99
2024-04-21T06:34:03.264Z,99.1
2024-04-21T06:35:09.116Z,99.2
2024-04-21T06:36:10.632Z,99.2
2024-04-21T06:37:12.729Z,99.3
2024-04-21T06:38:14.614Z,99.3
2024-04-21T06:39:16.627Z,99.3
2024-04-21T06:40:18.975Z,99.4
2024-04-21T06:41:20.614Z,99.4
2024-04-21T06:42:22.601Z,99.2
2024-04-21T06:43:24.762Z,99
2024-04-21T06:44:26.621Z,98.6
2024-04-21T06:45:28.599Z,98.5
2024-04-21T06:46:30.652Z,98.4
2024-04-21T06:47:32.995Z,98.4
2024-04-21T06:48:35.138Z,98.4
2024-04-21T06:49:36.802Z,98.6
2024-04-21T06:50:38.811Z,98.7
2024-04-21T06:51:40.604Z,98.8
2024-04-21T06:52:42.589Z,98.8
2024-04-21T06:53:44.667Z,98.8
2024-04-21T06:54:46.724Z,98.8
2024-04-21T06:55:48.599Z,98.8
2024-04-21T06:56:50.596Z,98.9
2024-04-21T06:57:52.617Z,99
2024-04-21T06:58:54.596Z,99
2024-04-21T06:59:56.580Z,99.1
2024-04-21T07:00:58.863Z,99.3
2024-04-21T07:02:00.867Z,99.4
2024-04-21T07:03:06.529Z,99.4
2024-04-21T07:04:09.237Z,99.3
2024-04-21T07:05:10.958Z,99
2024-04-21T07:06:12.857Z,98.7
2024-04-21T07:07:15.090Z,98.5
2024-04-21T07:08:16.888Z,98.5
2024-04-21T07:09:18.845Z,98.5
2024-04-21T07:10:21.324Z,98.6
2024-04-21T07:11:23.011Z,98.7
2024-04-21T07:12:24.884Z,98.9
2024-04-21T07:13:27.191Z,99
2024-04-21T07:14:28.825Z,99.1
2024-04-21T07:15:30.855Z,99.3
2024-04-21T07:16:32.860Z,99.4
2024-04-21T07:17:35.360Z,99.5
2024-04-21T07:18:37.448Z,99.6
2024-04-21T07:19:39.157Z,99.6
2024-04-21T07:20:40.817Z,99.6
2024-04-21T07:21:42.863Z,99.5
2024-04-21T07:22:45.083Z,99.6
2024-04-21T07:23:46.810Z,99.7
2024-04-21T07:24:49.110Z,99.8
2024-04-21T07:25:51.147Z,99.9
2024-04-21T07:26:52.852Z,99.9
2024-04-21T07:27:54.949Z,99.9
2024-04-21T07:28:57.021Z,99.9
2024-04-21T07:29:58.834Z,99.9
2024-04-21T07:31:01.132Z,99.8
2024-04-21T07:32:03.182Z,99.8
2024-04-21T07:33:05.224Z,99.7
2024-04-21T07:34:06.853Z,99.6
2024-04-21T07:35:08.812Z,99.7
2024-04-21T07:36:10.836Z,99.7
2024-04-21T07:37:12.844Z,99.8
2024-04-21T07:38:14.863Z,99.8
2024-04-21T07:39:16.812Z,99.8
2024-04-21T07:40:19.055Z,99.9
2024-04-21T07:41:20.829Z,99.9
2024-04-21T07:42:23.615Z,99.9
2024-04-21T07:43:25.229Z,99.9
2024-04-21T07:44:26.800Z,99.9
2024-04-21T07:45:30.089Z,99.9
2024-04-21T07:46:31.029Z,99.9
2024-04-21T07:47:33.124Z,99.9
2024-04-21T07:48:35.126Z,99.9
2024-04-21T07:49:36.865Z,99.9
2024-04-21T07:50:38.851Z,99.9
2024-04-21T07:51:40.822Z,99.9
2024-04-21T07:52:42.804Z,99.9
2024-04-21T07:53:44.830Z,99.9
2024-04-21T07:54:46.817Z,99.9
2024-04-21T07:55:48.973Z,99.9
2024-04-21T07:56:50.813Z,99.9
2024-04-21T07:57:53.543Z,99.9
2024-04-21T07:58:54.813Z,99.9
2024-04-21T07:59:56.856Z,99.9
2024-04-21T08:00:59.231Z,99.9
2024-04-21T08:02:01.476Z,99.9
2024-04-21T08:03:02.952Z,99.9
2024-04-21T08:04:05.051Z,99.9
2024-04-21T08:05:06.773Z,99.9
2024-04-21T08:06:09.147Z,99.9
2024-04-21T08:07:10.867Z,99.9
2024-04-21T08:08:12.768Z,99.9
2024-04-21T08:09:31.083Z,99.9
2024-04-21T08:10:32.413Z,99.9
2024-04-21T08:11:34.141Z,99.9
2024-04-21T08:12:36.402Z,99.9
2024-04-21T08:13:38.074Z,99.9
2024-04-21T08:14:40.033Z,99.9
2024-04-21T08:15:42.052Z,99.9
2024-04-21T08:16:44.060Z,99.9
2024-04-21T08:17:46.500Z,99.9
2024-04-21T08:18:48.213Z,99.9
2024-04-21T08:19:50.499Z,99.9
2024-04-21T08:20:52.319Z,99.9
2024-04-21T08:21:54.923Z,99.9
2024-04-21T08:22:56.071Z,99.9
2024-04-21T08:23:58.026Z,99.9
2024-04-21T08:25:00.308Z,99.8
2024-04-21T08:26:02.295Z,99.8
2024-04-21T08:27:04.057Z,99.7
2024-04-21T08:28:06.425Z,99.6
2024-04-21T08:29:08.053Z,99.6
2024-04-21T08:30:10.193Z,99.7
2024-04-21T08:31:12.519Z,99.7
2024-04-21T08:32:14.311Z,99.6
2024-04-21T08:33:16.363Z,99.4
2024-04-21T08:34:18.136Z,99.4
2024-04-21T08:35:20.029Z,99.4
2024-04-21T08:36:22.047Z,99.3
2024-04-21T08:37:25.545Z,99.1
2024-04-21T08:38:26.327Z,99
2024-04-21T08:39:28.027Z,99
2024-04-21T08:40:30.134Z,98.8
2024-04-21T08:41:32.038Z,98.7
2024-04-21T08:42:34.229Z,98.5
2024-04-21T08:43:36.007Z,98.3
2024-04-21T08:44:37.996Z,98.2
2024-04-21T08:45:40.006Z,98.2
2024-04-21T08:46:42.035Z,98.2
2024-04-21T08:47:44.217Z,98.3
2024-04-21T08:48:46.339Z,98.3
2024-04-21T08:49:47.999Z,98.1
2024-04-21T08:50:50.021Z,98
2024-04-21T08:51:52.465Z,98.1
2024-04-21T08:52:54.079Z,97.9
2024-04-21T08:53:55.987Z,97.6
2024-04-21T08:54:58.067Z,97.6
2024-04-21T08:56:00.331Z,97.6
2024-04-21T08:57:02.095Z,97.8
2024-04-21T08:58:04.020Z,97.7
2024-04-21T08:59:05.980Z,97.8
2024-04-21T09:00:08.038Z,97.5
2024-04-21T09:01:10.349Z,97.5
2024-04-21T09:02:12.350Z,97.2
2024-04-21T09:03:13.986Z,97.1
2024-04-21T09:04:16.239Z,96.3
2024-04-21T09:05:18.002Z,95.7
2024-04-21T09:06:19.970Z,94.8
2024-04-21T09:07:22.324Z,92.8
2024-04-21T09:08:24.016Z,91.5
2024-04-21T09:09:26.008Z,92.1
2024-04-21T09:10:28.235Z,92.8
2024-04-21T09:11:30.311Z,92.6
2024-04-21T09:12:32.602Z,92.8
2024-04-21T09:13:34.038Z,92.3
2024-04-21T09:14:35.993Z,92.5
2024-04-21T09:15:37.981Z,92.2
2024-04-21T09:16:39.960Z,92.6
2024-04-21T09:17:42.280Z,92.9
2024-04-21T09:18:44.417Z,92.9
2024-04-21T09:19:45.984Z,93.3
2024-04-21T09:20:48.100Z,93.4
2024-04-21T09:21:50.209Z,93.7
2024-04-21T09:22:51.964Z,93.9
2024-04-21T09:23:53.989Z,94.1
2024-04-21T09:24:56.342Z,94.2
2024-04-21T09:25:57.961Z,93.9
2024-04-21T09:27:00.118Z,94.1
2024-04-21T09:28:02.202Z,94.2
2024-04-21T09:29:03.975Z,93.7
2024-04-21T09:30:05.981Z,93.2
2024-04-21T09:31:08.044Z,92.7
2024-04-21T09:32:11.435Z,92.5
2024-04-21T09:33:12.793Z,91.3
2024-04-21T09:34:14.858Z,90.9
2024-04-21T09:35:17.098Z,91.1
2024-04-21T09:36:18.104Z,91.6
2024-04-21T09:37:20.429Z,91.7
2024-04-21T09:38:22.196Z,92
2024-04-21T09:39:24.098Z,92.3
2024-04-21T09:40:26.279Z,91.8
2024-04-21T09:41:28.083Z,91.8
2024-04-21T09:42:30.119Z,91.8
2024-04-21T09:43:32.416Z,91.6
2024-04-21T09:44:34.066Z,92
2024-04-21T09:45:36.071Z,91.9
2024-04-21T09:46:38.120Z,90.8
2024-04-21T09:47:40.377Z,91
2024-04-21T09:48:42.083Z,91.7
2024-04-21T09:49:44.057Z,92.4
2024-04-21T09:50:46.150Z,93
2024-04-21T09:51:48.433Z,92
2024-04-21T09:52:50.371Z,91.5
2024-04-21T09:53:52.312Z,91.1
2024-04-21T09:54:54.463Z,92.4
2024-04-21T09:55:56.132Z,91.6
2024-04-21T09:56:58.109Z,88.5
2024-04-21T09:58:00.296Z,86.4
2024-04-21T09:59:02.053Z,86
2024-04-21T10:00:04.058Z,88
2024-04-21T10:01:06.416Z,86.9
2024-04-21T10:02:08.470Z,87.3
2024-04-21T10:03:10.867Z,85.7
2024-04-21T10:04:12.272Z,83.5
2024-04-21T10:05:14.082Z,83.3
2024-04-21T10:06:16.979Z,83.2
2024-04-21T10:07:19.002Z,82.2
2024-04-21T10:08:23.814Z,81.2
2024-04-21T10:09:24.327Z,81.8
2024-04-21T10:10:26.810Z,80.9
2024-04-21T10:11:28.511Z,78.5
2024-04-21T10:12:30.318Z,78.2
2024-04-21T10:13:33.244Z,77.2
2024-04-21T10:14:34.333Z,76.4
2024-04-21T10:15:36.344Z,76.9
2024-04-21T10:16:38.304Z,78
2024-04-21T10:17:40.533Z,78.5
2024-04-21T10:18:42.642Z,79.6
2024-04-21T10:19:44.314Z,78.7
2024-04-21T10:20:46.358Z,78.3
2024-04-21T10:21:48.293Z,80.4
2024-04-21T10:22:50.289Z,82.3
2024-04-21T10:23:52.292Z,83.6
2024-04-21T10:24:55.452Z,79.9
2024-04-21T10:25:57.492Z,78.3
2024-04-21T10:27:00.454Z,78.5
2024-04-21T10:28:01.382Z,80.2
2024-04-21T10:29:03.026Z,80.7
2024-04-21T10:30:04.989Z,79.3
2024-04-21T10:31:07.270Z,79.3
2024-04-21T10:32:09.258Z,76.3
2024-04-21T10:33:11.627Z,72.8
2024-04-21T10:34:14.278Z,73.4
2024-04-21T10:35:15.114Z,70.7
2024-04-21T10:36:16.985Z,71.5
2024-04-21T10:37:19.227Z,72.4
2024-04-21T10:38:20.991Z,71.7
2024-04-21T10:39:22.971Z,73.1
2024-04-21T10:40:25.403Z,72.2
2024-04-21T10:41:26.983Z,72.9
2024-04-21T10:42:28.959Z,73
2024-04-21T10:43:31.273Z,75
2024-04-21T10:44:33.386Z,75.5
2024-04-21T10:45:35.322Z,75.7
2024-04-21T10:46:37.990Z,76.1
2024-04-21T10:47:39.165Z,76.6
2024-04-21T10:48:40.984Z,77.2
2024-04-21T10:49:42.968Z,74.8
2024-04-21T10:50:44.954Z,76.4
2024-04-21T10:51:46.950Z,77.1
2024-04-21T10:52:48.979Z,78.4
2024-04-21T10:53:50.965Z,77.7
2024-04-21T10:54:53.354Z,78
2024-04-21T10:55:55.923Z,78.4
2024-04-21T10:56:57.132Z,78.5
2024-04-21T10:57:59.094Z,77.7
2024-04-21T10:59:00.951Z,77.2
2024-04-21T11:00:03.201Z,79.5
2024-04-21T11:01:05.358Z,78.3
2024-04-21T11:02:07.397Z,78.4
2024-04-21T11:03:09.631Z,76.5
2024-04-21T11:04:11.153Z,76.3
2024-04-21T11:05:12.958Z,76.4
2024-04-21T11:06:15.144Z,74.6
2024-04-21T11:07:17.342Z,72
2024-04-21T11:08:19.249Z,70.3
2024-04-21T11:09:21.397Z,65
2024-04-21T11:10:23.530Z,67
2024-04-21T11:11:25.224Z,65.6
2024-04-21T11:12:29.327Z,64.4
2024-04-21T11:13:30.767Z,62.2
2024-04-21T11:14:41.407Z,65.6
2024-04-21T11:15:45.553Z,65.7
2024-04-21T11:16:46.445Z,63.2
2024-04-21T11:17:48.825Z,62.8
2024-04-21T11:18:50.309Z,64.7
2024-04-21T11:19:55.086Z,63.5
2024-04-21T11:20:55.798Z,61.6
2024-04-21T11:21:57.601Z,62.7
2024-04-21T11:22:59.712Z,61.5
2024-04-21T11:24:03.892Z,65.7
2024-04-21T11:25:11.272Z,65.2
2024-04-21T11:26:11.754Z,62.8
2024-04-21T11:27:13.714Z,63
2024-04-21T11:28:15.912Z,60.7
2024-04-21T11:29:17.708Z,62.5
2024-04-21T11:30:19.738Z,62.7
2024-04-21T11:31:22.082Z,63.8
2024-04-21T11:32:23.800Z,66.6
2024-04-21T11:33:25.870Z,64.9
2024-04-21T11:34:28.000Z,65.7
2024-04-21T11:35:29.728Z,67.8
2024-04-21T11:36:31.713Z,69
2024-04-21T11:37:33.726Z,69.8
2024-04-21T11:38:35.707Z,69.8
2024-04-21T11:39:37.727Z,68.8
2024-04-21T11:40:39.938Z,69.8
2024-04-21T11:41:41.685Z,66.5
2024-04-21T11:42:43.679Z,66.7
2024-04-21T11:43:45.811Z,66.4
2024-04-21T11:44:47.707Z,66.1
2024-04-21T11:45:49.696Z,64.5
2024-04-21T11:46:51.691Z,67.6
2024-04-21T11:47:54.032Z,64.7
2024-04-21T11:48:56.165Z,63.2
2024-04-21T11:49:57.701Z,64.8
2024-04-21T11:50:59.676Z,66.2
2024-04-21T11:52:01.927Z,64.6
2024-04-21T11:53:03.695Z,62
2024-04-21T11:54:05.700Z,60.7
2024-04-21T11:55:07.795Z,55.8
2024-04-21T11:56:09.678Z,58.7
2024-04-21T11:57:11.669Z,58.6
2024-04-21T11:58:13.734Z,57.6
2024-04-21T11:59:16.001Z,57.8
2024-04-21T12:00:17.728Z,56
2024-04-21T12:01:35.385Z,55.8
2024-04-21T12:02:41.188Z,49.9
2024-04-21T12:03:43.292Z,58.4
2024-04-21T12:04:45.484Z,55.4
2024-04-21T12:05:46.822Z,55.7
2024-04-21T12:06:49.107Z,58.2
2024-04-21T12:07:50.857Z,58.7
2024-04-21T12:08:54.766Z,59.6
2024-04-21T12:09:55.285Z,61.2
2024-04-21T12:10:57.900Z,62.8
2024-04-21T12:12:00.235Z,64.2
2024-04-21T12:13:01.432Z,65.9
2024-04-21T12:14:03.712Z,68
2024-04-21T12:15:06.086Z,71.2
2024-04-21T12:16:08.501Z,74
2024-04-21T12:17:09.689Z,77.6
2024-04-21T12:18:11.393Z,78.5
2024-04-21T12:19:14.324Z,80.9
2024-04-21T12:20:15.299Z,82.8
2024-04-21T12:21:18.092Z,85.4
2024-04-21T12:22:19.640Z,85.8
2024-04-21T12:23:21.300Z,85.9
2024-04-21T12:24:23.319Z,87
2024-04-21T12:25:25.324Z,87.4
2024-04-21T12:26:27.323Z,86.5
2024-04-21T12:27:29.583Z,85.9
2024-04-21T12:28:31.674Z,86.1
2024-04-21T12:29:33.302Z,87
2024-04-21T12:30:35.335Z,88.5
2024-04-21T12:31:37.491Z,89.3
2024-04-21T12:32:39.606Z,89.3
2024-04-21T12:33:42.131Z,88.8
2024-04-21T12:34:43.293Z,87.9
2024-04-21T12:35:45.322Z,86.3
2024-04-21T12:36:50.849Z,85.2
2024-04-21T12:37:51.290Z,85.1
2024-04-21T12:38:53.163Z,84.8
2024-04-21T12:39:55.491Z,84.3
2024-04-21T12:40:57.822Z,84.2
2024-04-21T12:41:59.328Z,80.6
2024-04-21T12:43:01.370Z,80.2
2024-04-21T12:44:03.372Z,75.5
2024-04-21T12:45:05.193Z,73.8
2024-04-21T12:46:07.571Z,74.3
2024-04-21T12:47:09.563Z,72.4
2024-04-21T12:48:15.485Z,69
2024-04-21T12:49:17.807Z,67.4
2024-04-21T12:50:19.318Z,66.9
2024-04-21T12:51:21.451Z,67.5
2024-04-21T12:52:23.487Z,68.2
2024-04-21T12:53:27.621Z,66.7
2024-04-21T12:54:29.700Z,65
2024-04-21T12:55:34.017Z,65.4
2024-04-21T12:56:38.489Z,61.9
2024-04-21T12:57:40.174Z,60.8
2024-04-21T12:58:40.992Z,61
2024-04-21T12:59:46.737Z,61.8
2024-04-21T13:00:50.978Z,62.2
2024-04-21T13:01:52.695Z,63.4
2024-04-21T13:02:54.468Z,65.9
2024-04-21T13:03:56.623Z,67.7
2024-04-21T13:05:02.031Z,68.5
2024-04-21T13:06:04.575Z,70.8
2024-04-21T13:07:06.060Z,71.7
2024-04-21T13:08:08.367Z,71.9
2024-04-21T13:09:10.773Z,73.1
2024-04-21T13:10:12.531Z,74
2024-04-21T13:11:14.545Z,75
2024-04-21T13:12:16.739Z,76.2
2024-04-21T13:13:18.761Z,77.5
2024-04-21T13:14:23.782Z,77.3
2024-04-21T13:15:25.516Z,77.1
2024-04-21T13:16:26.459Z,75.2
2024-04-21T13:17:29.403Z,76.4
2024-04-21T13:18:30.807Z,76.9
2024-04-21T13:19:33.243Z,78.1
2024-04-21T13:20:36.412Z,79.1
2024-04-21T13:21:37.844Z,80.7
2024-04-21T13:22:39.973Z,82.1
2024-04-21T13:23:44.104Z,82.3
2024-04-21T13:24:44.663Z,83.7
2024-04-21T13:25:46.776Z,82.7
2024-04-21T13:26:49.964Z,82.1
2024-04-21T13:27:52.332Z,80.2
2024-04-21T13:28:55.619Z,80.4
2024-04-21T13:29:57.602Z,81
2024-04-21T13:30:59.186Z,81.2
2024-04-21T13:32:02.185Z,80.1
2024-04-21T13:33:06.048Z,80.6
2024-04-21T13:34:09.313Z,81.4
2024-04-21T13:35:13.479Z,81.5
2024-04-21T13:36:37.319Z,82.2
2024-04-21T13:37:41.536Z,82.6
2024-04-21T13:38:42.080Z,80.9
2024-04-21T13:39:44.133Z,81
2024-04-21T13:40:46.115Z,74.9
2024-04-21T13:41:48.117Z,71.9
2024-04-21T13:42:50.073Z,68.4
2024-04-21T13:43:52.069Z,64.2
2024-04-21T13:44:54.160Z,63.8
2024-04-21T13:45:56.226Z,60.5
2024-04-21T13:46:58.286Z,58.9
2024-04-21T13:48:00.334Z,57.7
2024-04-21T13:49:02.406Z,56.3
2024-04-21T13:50:04.106Z,56.5